createdAt,value
2018-05-12T00:01:51.771Z,12.30
2018-05-12T00:04:19.254Z,12.30
2018-05-12T00:06:47.507Z,12.40
2018-05-12T00:09:15.003Z,12.40
2018-05-12T00:11:42.524Z,12.40
2018-05-12T00:14:09.998Z,12.40
2018-05-12T00:16:38.239Z,12.40
2018-05-12T00:19:05.765Z,12.40
2018-05-12T00:21:33.267Z,12.40
2018-05-12T00:24:02.262Z,12.40
2018-05-12T00:26:29.730Z,12.30
2018-05-12T00:28:57.252Z,12.30
2018-05-12T00:31:24.775Z,12.30
2018-05-12T00:33:53.040Z,12.20
2018-05-12T00:36:21.290Z,12.20
2018-05-12T00:38:48.762Z,12.20
2018-05-12T00:41:17.020Z,12.30
2018-05-12T00:43:44.496Z,12.30
2018-05-12T00:46:12.741Z,12.20
2018-05-12T00:48:40.257Z,12.20
2018-05-12T00:51:07.776Z,12.20
2018-05-12T00:53:35.285Z,12.10
2018-05-12T00:56:02.771Z,12.10
2018-05-12T00:58:30.268Z,12.00
2018-05-12T01:00:57.811Z,12.00
2018-05-12T01:03:25.317Z,11.90
2018-05-12T01:05:52.837Z,11.80
2018-05-12T01:08:21.086Z,11.80
2018-05-12T01:10:48.609Z,11.80
2018-05-12T01:13:16.078Z,11.70
2018-05-12T01:15:43.563Z,11.80
2018-05-12T01:18:11.038Z,11.70
2018-05-12T01:20:39.328Z,11.70
2018-05-12T01:23:07.599Z,11.70
2018-05-12T01:25:35.875Z,11.70
2018-05-12T01:28:04.152Z,11.70
2018-05-12T01:30:32.432Z,11.70
2018-05-12T01:33:00.674Z,11.70
2018-05-12T01:35:28.207Z,11.70
2018-05-12T01:37:55.716Z,11.70
2018-05-12T01:40:24.004Z,11.70
2018-05-12T01:42:52.272Z,11.70
2018-05-12T01:45:19.788Z,11.70
2018-05-12T01:47:47.262Z,11.70
2018-05-12T01:50:14.742Z,11.70
2018-05-12T01:52:43.011Z,11.70
2018-05-12T01:55:11.288Z,11.70
2018-05-12T01:57:39.523Z,11.60
2018-05-12T02:00:06.998Z,11.60
2018-05-12T02:02:34.508Z,11.50
2018-05-12T02:05:01.992Z,11.50
2018-05-12T02:07:29.478Z,11.40
2018-05-12T02:09:57.003Z,11.30
2018-05-12T02:12:24.488Z,11.30
2018-05-12T02:14:51.958Z,11.30
2018-05-12T02:17:20.271Z,11.30
2018-05-12T02:19:47.743Z,11.20
2018-05-12T02:22:15.211Z,11.20
2018-05-12T02:24:42.703Z,11.30
2018-05-12T02:27:10.958Z,11.20
2018-05-12T02:29:38.479Z,11.10
2018-05-12T02:32:05.963Z,11.20
2018-05-12T02:34:33.430Z,11.10
2018-05-12T02:37:00.961Z,11.10
2018-05-12T02:39:28.472Z,11.00
2018-05-12T02:41:56.764Z,11.00
2018-05-12T02:44:24.272Z,11.00
2018-05-12T02:46:51.806Z,10.90
2018-05-12T02:49:19.313Z,10.90
2018-05-12T02:51:46.829Z,10.80
2018-05-12T02:54:14.335Z,10.80
2018-05-12T02:56:42.620Z,10.70
2018-05-12T02:59:10.136Z,10.70
2018-05-12T03:01:37.656Z,10.70
2018-05-12T03:04:05.125Z,10.70
2018-05-12T03:06:32.652Z,10.60
2018-05-12T03:09:00.891Z,10.60
2018-05-12T03:11:28.427Z,10.60
2018-05-12T03:13:55.931Z,10.60
2018-05-12T03:16:23.456Z,10.50
2018-05-12T03:18:50.920Z,10.50
2018-05-12T03:21:18.402Z,10.40
2018-05-12T03:23:46.684Z,10.40
2018-05-12T03:26:14.935Z,10.30
2018-05-12T03:28:42.407Z,10.30
2018-05-12T03:31:09.934Z,10.30
2018-05-12T03:33:37.436Z,10.30
2018-05-12T03:36:05.682Z,10.20
2018-05-12T03:38:33.151Z,10.20
2018-05-12T03:41:00.635Z,10.10
2018-05-12T03:43:28.868Z,10.00
2018-05-12T03:45:56.391Z,10.00
2018-05-12T03:48:23.913Z,9.90
2018-05-12T03:50:52.187Z,9.90
2018-05-12T03:53:20.474Z,9.80
2018-05-12T03:55:47.942Z,9.80
2018-05-12T03:58:15.455Z,9.80
2018-05-12T04:00:42.914Z,9.80
2018-05-12T04:03:10.409Z,9.90
2018-05-12T04:05:49.759Z,9.90
2018-05-12T04:08:30.142Z,9.90
2018-05-12T04:11:09.538Z,9.90
2018-05-12T04:13:37.830Z,10.00
2018-05-12T04:16:05.300Z,10.00
2018-05-12T04:18:32.786Z,10.00
2018-05-12T04:21:00.262Z,10.00
2018-05-12T04:23:27.796Z,10.00
2018-05-12T04:25:55.258Z,10.10
2018-05-12T04:28:22.763Z,10.20
2018-05-12T04:30:50.247Z,10.20
2018-05-12T04:33:17.725Z,10.40
2018-05-12T04:35:45.197Z,10.50
2018-05-12T04:38:12.720Z,10.70
2018-05-12T04:40:40.228Z,10.80
2018-05-12T04:43:07.710Z,10.90
2018-05-12T04:45:35.190Z,11.10
2018-05-12T04:48:02.682Z,11.20
2018-05-12T04:50:30.182Z,11.30
2018-05-12T04:52:57.674Z,11.40
2018-05-12T04:55:25.150Z,11.40
2018-05-12T04:57:52.669Z,11.60
2018-05-12T05:00:20.130Z,11.70
2018-05-12T05:02:47.652Z,11.80
2018-05-12T05:05:15.894Z,12.20
2018-05-12T05:07:43.395Z,12.10
2018-05-12T05:10:11.626Z,12.60
2018-05-12T05:12:39.142Z,12.60
2018-05-12T05:15:06.649Z,12.90
2018-05-12T05:17:34.121Z,13.10
2018-05-12T05:20:02.413Z,13.50
2018-05-12T05:22:30.685Z,13.90
2018-05-12T05:24:58.938Z,14.30
2018-05-12T05:27:26.493Z,14.30
2018-05-12T05:29:54.025Z,14.70
2018-05-12T05:32:21.524Z,15.50
2018-05-12T05:34:49.018Z,16.30
2018-05-12T05:37:16.517Z,16.70
2018-05-12T05:39:44.019Z,17.80
2018-05-12T05:42:11.508Z,18.60
2018-05-12T05:44:39.063Z,19.30
2018-05-12T05:47:06.595Z,19.90
2018-05-12T05:49:34.124Z,20.30
2018-05-12T05:52:01.609Z,20.30
2018-05-12T05:54:29.182Z,19.80
2018-05-12T05:56:56.697Z,18.90
2018-05-12T05:59:24.224Z,18.00
2018-05-12T06:01:51.764Z,17.40
2018-05-12T06:04:19.275Z,17.10
2018-05-12T06:06:47.607Z,16.80
2018-05-12T06:09:15.048Z,16.70
2018-05-12T06:11:42.576Z,16.70
2018-05-12T06:14:10.888Z,17.80
2018-05-12T06:16:38.375Z,17.80
2018-05-12T06:19:05.909Z,19.20
2018-05-12T06:21:33.448Z,20.40
2018-05-12T06:24:00.938Z,20.70
2018-05-12T06:26:28.462Z,20.90
2018-05-12T06:28:55.958Z,20.30
2018-05-12T06:31:23.451Z,19.50
2018-05-12T06:33:51.723Z,18.90
2018-05-12T06:36:19.231Z,18.90
2018-05-12T06:38:46.735Z,18.60
2018-05-12T06:41:14.248Z,18.50
2018-05-12T06:43:41.772Z,18.80
2018-05-12T06:46:10.055Z,19.70
2018-05-12T06:48:37.608Z,19.60
2018-05-12T06:51:05.906Z,19.90
2018-05-12T06:53:33.383Z,19.90
2018-05-12T06:56:00.912Z,21.80
2018-05-12T06:58:28.389Z,23.90
2018-05-12T07:00:55.928Z,24.10
2018-05-12T07:03:23.402Z,25.10
2018-05-12T07:05:50.947Z,26.60
2018-05-12T07:08:18.477Z,26.30
2018-05-12T07:10:46.736Z,27.80
2018-05-12T07:13:14.222Z,27.80
2018-05-12T07:15:42.470Z,28.90
2018-05-12T07:18:09.983Z,28.90
2018-05-12T07:20:37.464Z,29.80
2018-05-12T07:23:05.026Z,30.00
2018-05-12T07:25:32.512Z,30.10
2018-05-12T07:28:00.756Z,30.50
2018-05-12T07:30:28.282Z,30.50
2018-05-12T07:32:55.788Z,30.90
2018-05-12T07:35:23.305Z,30.90
2018-05-12T07:37:50.783Z,30.90
2018-05-12T07:40:18.276Z,31.30
2018-05-12T07:42:46.556Z,31.30
2018-05-12T07:45:14.840Z,31.90
2018-05-12T07:47:43.103Z,32.00
2018-05-12T07:50:11.395Z,32.10
2018-05-12T07:52:39.707Z,32.30
2018-05-12T07:55:07.252Z,32.30
2018-05-12T07:57:34.771Z,32.60
2018-05-12T08:00:03.081Z,31.40
2018-05-12T08:02:30.585Z,31.40
2018-05-12T08:04:58.179Z,31.80
2018-05-12T08:07:26.459Z,31.70
2018-05-12T08:09:53.935Z,31.70
2018-05-12T08:12:21.418Z,31.90
2018-05-12T08:14:48.936Z,32.00
2018-05-12T08:17:16.480Z,32.20
2018-05-12T08:19:44.764Z,32.10
2018-05-12T08:22:12.270Z,32.10
2018-05-12T08:24:39.745Z,31.70
2018-05-12T08:27:07.366Z,32.10
2018-05-12T08:29:34.884Z,31.70
2018-05-12T08:32:03.187Z,31.00
2018-05-12T08:34:30.718Z,31.00
2018-05-12T08:36:59.009Z,31.00
2018-05-12T08:39:27.298Z,31.40
2018-05-12T08:41:54.804Z,31.40
2018-05-12T08:44:22.335Z,30.80
2018-05-12T08:46:49.908Z,31.00
2018-05-12T08:49:18.165Z,31.70
2018-05-12T08:51:45.661Z,31.60
2018-05-12T08:54:13.142Z,31.40
2018-05-12T08:56:41.403Z,31.80
2018-05-12T08:59:08.879Z,31.80
2018-05-12T09:01:37.142Z,31.50
2018-05-12T09:04:05.387Z,29.70
2018-05-12T09:06:32.928Z,29.70
2018-05-12T09:09:00.447Z,27.70
2018-05-12T09:11:28.746Z,25.00
2018-05-12T09:13:56.248Z,25.00
2018-05-12T09:16:23.784Z,24.60
2018-05-12T09:18:51.296Z,24.20
2018-05-12T09:21:19.585Z,23.60
2018-05-12T09:23:47.099Z,23.60
2018-05-12T09:26:14.642Z,23.40
2018-05-12T09:28:42.124Z,23.30
2018-05-12T09:31:09.635Z,23.20
2018-05-12T09:33:37.130Z,23.10
2018-05-12T09:36:04.619Z,22.90
2018-05-12T09:38:32.283Z,22.70
2018-05-12T09:41:00.648Z,22.60
2018-05-12T09:43:34.921Z,22.70
2018-05-12T09:46:02.632Z,22.70
2018-05-12T09:48:30.931Z,22.90
2018-05-12T09:50:58.414Z,22.90
2018-05-12T09:53:25.945Z,22.90
2018-05-12T09:55:53.464Z,22.80
2018-05-12T09:58:20.952Z,23.00
2018-05-12T10:00:48.430Z,23.20
2018-05-12T10:03:15.918Z,23.40
2018-05-12T10:05:43.411Z,23.50
2018-05-12T10:08:11.738Z,23.50
2018-05-12T10:10:39.218Z,23.40
2018-05-12T10:13:06.755Z,23.40
2018-05-12T10:15:34.360Z,23.40
2018-05-12T10:18:01.770Z,23.40
2018-05-12T10:20:29.238Z,23.40
2018-05-12T10:22:57.064Z,23.40
2018-05-12T10:25:24.655Z,23.50
2018-05-12T10:27:52.154Z,23.30
2018-05-12T10:30:20.400Z,22.90
2018-05-12T10:32:47.932Z,22.80
2018-05-12T10:35:15.409Z,22.70
2018-05-12T10:37:42.904Z,22.80
2018-05-12T10:40:11.154Z,23.10
2018-05-12T10:42:38.725Z,23.00
2018-05-12T10:45:07.016Z,22.90
2018-05-12T10:47:35.286Z,23.00
2018-05-12T10:50:03.535Z,22.90
2018-05-12T10:52:31.064Z,22.80
2018-05-12T10:54:58.596Z,22.60
2018-05-12T10:57:26.086Z,22.50
2018-05-12T10:59:53.560Z,22.50
2018-05-12T11:02:21.853Z,22.80
2018-05-12T11:04:49.327Z,22.80
2018-05-12T11:07:17.579Z,22.80
2018-05-12T11:09:45.112Z,22.80
2018-05-12T11:12:12.578Z,22.70
2018-05-12T11:14:40.091Z,22.40
2018-05-12T11:17:07.653Z,22.30
2018-05-12T11:19:35.088Z,22.30
2018-05-12T11:22:03.339Z,22.30
2018-05-12T11:24:30.834Z,22.20
2018-05-12T11:26:59.132Z,22.60
2018-05-12T11:29:26.628Z,22.50
2018-05-12T11:31:54.094Z,22.80
2018-05-12T11:34:21.602Z,22.90
2018-05-12T11:36:49.112Z,23.10
2018-05-12T11:39:16.604Z,23.20
2018-05-12T11:41:44.069Z,23.40
2018-05-12T11:44:11.596Z,23.60
2018-05-12T11:46:39.833Z,23.80
2018-05-12T11:49:07.352Z,23.80
2018-05-12T11:51:34.819Z,23.60
2018-05-12T11:54:02.403Z,23.60
2018-05-12T11:56:29.831Z,23.50
2018-05-12T11:58:57.334Z,23.40
2018-05-12T12:01:24.817Z,23.30
2018-05-12T12:03:53.072Z,22.90
2018-05-12T12:06:20.681Z,22.90
2018-05-12T12:08:48.191Z,22.70
2018-05-12T12:11:15.710Z,22.30
2018-05-12T12:13:43.197Z,22.20
2018-05-12T12:16:10.673Z,22.00
2018-05-12T12:18:38.195Z,21.90
2018-05-12T12:21:05.677Z,21.80
2018-05-12T12:23:33.218Z,21.50
2018-05-12T12:26:00.707Z,21.20
2018-05-12T12:28:28.230Z,20.80
2018-05-12T12:30:55.726Z,20.20
2018-05-12T12:33:23.345Z,19.90
2018-05-12T12:35:50.755Z,19.70
2018-05-12T12:38:19.043Z,19.30
2018-05-12T12:40:46.545Z,19.30
2018-05-12T12:43:14.007Z,19.40
2018-05-12T12:45:41.523Z,19.20
2018-05-12T12:48:08.987Z,19.30
2018-05-12T12:50:36.533Z,19.40
2018-05-12T12:53:04.019Z,19.50
2018-05-12T12:55:31.523Z,19.90
2018-05-12T12:57:59.803Z,20.70
2018-05-12T13:00:28.046Z,21.10
2018-05-12T13:02:55.518Z,21.10
2018-05-12T13:05:23.039Z,21.50
2018-05-12T13:07:51.546Z,21.80
2018-05-12T13:10:19.042Z,22.00
2018-05-12T13:12:46.564Z,22.30
2018-05-12T13:15:14.099Z,22.60
2018-05-12T13:17:41.570Z,22.60
2018-05-12T13:20:09.092Z,22.80
2018-05-12T13:22:36.647Z,23.10
2018-05-12T13:25:04.188Z,23.30
2018-05-12T13:27:32.460Z,23.50
2018-05-12T13:30:00.705Z,23.60
2018-05-12T13:32:28.394Z,23.50
2018-05-12T13:34:55.874Z,23.60
2018-05-12T13:37:23.351Z,23.60
2018-05-12T13:39:50.838Z,23.60
2018-05-12T13:42:18.373Z,23.60
2018-05-12T13:44:45.843Z,23.60
2018-05-12T13:47:13.317Z,23.60
2018-05-12T13:49:40.878Z,23.70
2018-05-12T13:52:08.979Z,23.80
2018-05-12T13:54:37.222Z,24.10
2018-05-12T13:57:04.697Z,24.10
2018-05-12T13:59:32.971Z,24.10
2018-05-12T14:02:01.265Z,24.10
2018-05-12T14:04:28.750Z,24.00
2018-05-12T14:06:56.288Z,24.00
2018-05-12T14:09:23.799Z,24.00
2018-05-12T14:11:51.329Z,24.00
2018-05-12T14:14:18.811Z,23.90
2018-05-12T14:16:46.321Z,23.70
2018-05-12T14:19:13.838Z,23.50
2018-05-12T14:21:41.384Z,23.50
2018-05-12T14:24:08.903Z,23.40
2018-05-12T14:26:36.412Z,23.20
2018-05-12T14:29:03.932Z,23.00
2018-05-12T14:31:31.405Z,23.00
2018-05-12T14:33:58.881Z,23.00
2018-05-12T14:36:26.414Z,23.00
2018-05-12T14:38:53.899Z,23.10
2018-05-12T14:41:21.428Z,23.20
2018-05-12T14:43:48.914Z,23.20
2018-05-12T14:46:16.406Z,23.40
2018-05-12T14:48:43.931Z,23.40
2018-05-12T14:51:12.191Z,23.50
2018-05-12T14:53:39.708Z,23.50
2018-05-12T14:56:07.204Z,23.40
2018-05-12T14:58:34.707Z,23.30
2018-05-12T15:01:02.954Z,23.10
2018-05-12T15:03:30.478Z,23.00
2018-05-12T15:05:57.982Z,22.90
2018-05-12T15:08:26.325Z,22.60
2018-05-12T15:10:53.784Z,22.60
2018-05-12T15:13:21.246Z,22.50
2018-05-12T15:15:48.792Z,22.20
2018-05-12T15:18:16.304Z,21.80
2018-05-12T15:20:44.568Z,20.70
2018-05-12T15:23:12.839Z,20.20
2018-05-12T15:25:40.372Z,20.20
2018-05-12T15:28:07.886Z,20.00
2018-05-12T15:30:35.419Z,19.80
2018-05-12T15:33:03.700Z,19.80
2018-05-12T15:35:31.988Z,19.80
2018-05-12T15:37:59.494Z,19.80
2018-05-12T15:40:27.033Z,19.90
2018-05-12T15:42:54.527Z,20.10
2018-05-12T15:45:22.019Z,20.30
2018-05-12T15:47:49.547Z,20.30
2018-05-12T15:50:17.081Z,20.40
2018-05-12T15:52:44.574Z,20.40
2018-05-12T15:55:12.899Z,20.40
2018-05-12T15:57:40.466Z,20.40
2018-05-12T16:00:07.949Z,20.50
2018-05-12T16:02:35.476Z,20.40
2018-05-12T16:05:02.993Z,20.30
2018-05-12T16:07:31.346Z,20.20
2018-05-12T16:09:58.805Z,20.20
2018-05-12T16:12:26.331Z,20.30
2018-05-12T16:14:53.854Z,20.20
2018-05-12T16:17:21.383Z,20.20
2018-05-12T16:19:48.903Z,20.10
2018-05-12T16:22:16.392Z,20.00
2018-05-12T16:24:43.867Z,20.00
2018-05-12T16:27:12.168Z,20.20
2018-05-12T16:29:39.672Z,20.20
2018-05-12T16:32:07.195Z,20.30
2018-05-12T16:34:34.679Z,20.30
2018-05-12T16:37:02.215Z,20.40
2018-05-12T16:39:29.723Z,20.40
2018-05-12T16:41:57.225Z,20.50
2018-05-12T16:44:24.768Z,20.50
2018-05-12T16:46:52.263Z,20.50
2018-05-12T16:49:19.777Z,20.60
2018-05-12T16:51:47.291Z,20.60
2018-05-12T16:54:14.805Z,20.70
2018-05-12T16:56:42.320Z,20.70
2018-05-12T16:59:09.804Z,20.90
2018-05-12T17:01:37.343Z,21.00
2018-05-12T17:04:04.833Z,21.20
2018-05-12T17:06:32.386Z,21.30
2018-05-12T17:08:59.857Z,21.30
2018-05-12T17:11:27.350Z,21.30
2018-05-12T17:13:54.850Z,21.20
2018-05-12T17:16:22.368Z,21.20
2018-05-12T17:18:49.857Z,21.00
2018-05-12T17:21:18.132Z,20.90
2018-05-12T17:23:46.441Z,20.90
2018-05-12T17:26:13.942Z,20.90
2018-05-12T17:28:41.456Z,20.80
2018-05-12T17:31:08.975Z,20.70
2018-05-12T17:33:37.271Z,20.70
2018-05-12T17:36:05.552Z,20.80
2018-05-12T17:38:33.114Z,20.80
2018-05-12T17:41:00.580Z,20.80
2018-05-12T17:43:28.063Z,20.90
2018-05-12T17:45:55.554Z,20.80
2018-05-12T17:48:23.046Z,20.60
2018-05-12T17:50:50.561Z,20.30
2018-05-12T17:53:18.044Z,20.10
2018-05-12T17:55:46.286Z,19.80
2018-05-12T17:58:13.820Z,19.80
2018-05-12T18:00:41.296Z,19.70
2018-05-12T18:03:08.831Z,19.60
2018-05-12T18:05:36.331Z,19.30
2018-05-12T18:08:03.844Z,19.20
2018-05-12T18:10:31.353Z,19.10
2018-05-12T18:12:58.831Z,18.90
2018-05-12T18:15:26.340Z,18.80
2018-05-12T18:17:53.856Z,18.70
2018-05-12T18:20:21.330Z,18.50
2018-05-12T18:22:48.818Z,18.40
2018-05-12T18:25:16.301Z,18.20
2018-05-12T18:27:44.531Z,17.80
2018-05-12T18:30:12.060Z,17.80
2018-05-12T18:32:39.543Z,17.70
2018-05-12T18:35:07.060Z,17.50
2018-05-12T18:37:35.304Z,16.60
2018-05-12T18:40:02.821Z,16.50
2018-05-12T18:42:30.344Z,16.10
2018-05-12T18:44:58.608Z,15.60
2018-05-12T18:47:26.145Z,15.60
2018-05-12T18:49:53.655Z,15.40
2018-05-12T18:52:21.188Z,15.40
2018-05-12T18:54:49.430Z,15.10
2018-05-12T18:57:16.909Z,15.10
2018-05-12T18:59:44.424Z,15.10
2018-05-12T19:02:11.890Z,15.00
2018-05-12T19:04:39.378Z,15.00
2018-05-12T19:07:06.879Z,14.80
2018-05-12T19:09:34.357Z,14.80
2018-05-12T19:12:01.860Z,14.70
2018-05-12T19:14:29.424Z,14.70
2018-05-12T19:16:57.684Z,14.60
2018-05-12T19:19:25.162Z,14.70
2018-05-12T19:21:53.455Z,14.70
2018-05-12T19:24:20.979Z,14.70
2018-05-12T19:26:48.494Z,14.80
2018-05-12T19:29:16.008Z,14.90
2018-05-12T19:31:49.544Z,15.00
2018-05-12T19:34:17.105Z,15.00
2018-05-12T19:36:44.664Z,15.00
2018-05-12T19:39:12.168Z,14.90
2018-05-12T19:41:39.671Z,14.80
2018-05-12T19:44:07.195Z,14.60
2018-05-12T19:46:34.704Z,14.40
2018-05-12T19:49:02.229Z,14.40
2018-05-12T19:51:30.496Z,14.30
2018-05-12T19:53:58.776Z,14.20
2018-05-12T19:56:27.022Z,14.20
2018-05-12T19:58:54.527Z,14.10
2018-05-12T20:01:22.043Z,14.20
2018-05-12T20:03:49.651Z,14.20
2018-05-12T20:06:17.103Z,14.20
2018-05-12T20:08:44.634Z,14.20
2018-05-12T20:11:12.887Z,14.20
2018-05-12T20:13:40.403Z,14.20
2018-05-12T20:16:07.887Z,14.20
2018-05-12T20:18:35.370Z,14.30
2018-05-12T20:21:02.866Z,14.40
2018-05-12T20:23:30.383Z,14.50
2018-05-12T20:25:57.871Z,14.60
2018-05-12T20:28:25.358Z,14.70
2018-05-12T20:30:52.904Z,15.00
2018-05-12T20:33:20.381Z,15.00
2018-05-12T20:35:47.878Z,15.20
2018-05-12T20:38:16.148Z,14.80
2018-05-12T20:40:43.667Z,14.80
2018-05-12T20:43:11.192Z,14.60
2018-05-12T20:45:38.716Z,14.50
2018-05-12T20:48:06.193Z,14.60
2018-05-12T20:50:34.506Z,14.50
2018-05-12T20:53:01.977Z,14.50
2018-05-12T20:55:29.515Z,14.60
2018-05-12T20:57:56.991Z,14.50
2018-05-12T21:00:24.510Z,14.40
2018-05-12T21:02:52.027Z,14.20
2018-05-12T21:05:19.562Z,14.00
2018-05-12T21:07:47.047Z,14.00
2018-05-12T21:10:14.539Z,13.90
2018-05-12T21:12:42.774Z,13.80
2018-05-12T21:15:10.257Z,13.80
2018-05-12T21:17:38.518Z,13.70
2018-05-12T21:20:06.003Z,13.70
2018-05-12T21:22:33.503Z,13.70
2018-05-12T21:25:01.017Z,13.60
2018-05-12T21:27:29.276Z,13.60
2018-05-12T21:29:57.561Z,13.60
2018-05-12T21:32:25.860Z,13.60
2018-05-12T21:34:53.323Z,13.60
2018-05-12T21:37:20.845Z,13.50
2018-05-12T21:39:49.100Z,13.50
2018-05-12T21:42:16.649Z,13.50
2018-05-12T21:44:44.131Z,13.50
2018-05-12T21:47:11.643Z,13.40
2018-05-12T21:49:39.130Z,13.30
2018-05-12T21:52:06.609Z,13.30
2018-05-12T21:54:34.880Z,13.30
2018-05-12T21:57:02.384Z,13.20
2018-05-12T21:59:29.891Z,13.20
2018-05-12T22:01:57.418Z,13.10
2018-05-12T22:04:24.883Z,13.10
2018-05-12T22:06:52.371Z,13.00
2018-05-12T22:09:20.611Z,12.90
2018-05-12T22:11:48.135Z,12.90
2018-05-12T22:14:15.611Z,12.80
2018-05-12T22:16:43.171Z,12.80
2018-05-12T22:19:10.695Z,12.70
2018-05-12T22:21:44.200Z,12.60
2018-05-12T22:24:11.712Z,12.60
2018-05-12T22:26:39.245Z,12.60
2018-05-12T22:29:06.727Z,12.50
2018-05-12T22:31:34.264Z,12.50
2018-05-12T22:34:01.778Z,12.40
2018-05-12T22:36:30.085Z,12.40
2018-05-12T22:38:57.587Z,12.30
2018-05-12T22:41:25.084Z,12.30
2018-05-12T22:43:52.608Z,12.20
2018-05-12T22:46:20.083Z,12.20
2018-05-12T22:48:48.356Z,12.10
2018-05-12T22:51:16.638Z,12.10
2018-05-12T22:53:44.887Z,12.00
2018-05-12T22:56:12.422Z,12.00
2018-05-12T22:58:39.947Z,12.00
2018-05-12T23:01:07.470Z,11.90
2018-05-12T23:03:34.988Z,11.90
2018-05-12T23:06:02.499Z,11.90
2018-05-12T23:08:30.776Z,11.90
2018-05-12T23:10:59.017Z,11.90
2018-05-12T23:13:26.494Z,11.90
2018-05-12T23:15:53.983Z,11.80
2018-05-12T23:18:21.577Z,11.80
2018-05-12T23:20:49.762Z,11.70
2018-05-12T23:23:17.300Z,11.70
2018-05-12T23:25:44.776Z,11.70
2018-05-12T23:28:12.320Z,11.70
2018-05-12T23:30:39.826Z,11.70
2018-05-12T23:33:07.326Z,11.60
2018-05-12T23:35:34.837Z,11.60
2018-05-12T23:38:03.119Z,11.50
2018-05-12T23:40:31.360Z,11.50
2018-05-12T23:42:58.892Z,11.50
2018-05-12T23:45:26.367Z,11.50
2018-05-12T23:47:54.672Z,11.40
2018-05-12T23:50:22.930Z,11.30
2018-05-12T23:52:50.460Z,11.30
2018-05-12T23:55:17.937Z,11.20
2018-05-12T23:57:45.434Z,11.10
